sensor_id;sensor_type;location;lat;lon;timestamp;temperature;humidity
10051;DHT22;5065;46.942;7.432;2023-07-30T00:02:25;20.70;99.90
10051;DHT22;5065;46.942;7.432;2023-07-30T00:04:52;20.70;99.90
10051;DHT22;5065;46.942;7.432;2023-07-30T00:07:20;20.70;99.90
10051;DHT22;5065;46.942;7.432;2023-07-30T00:09:49;20.70;99.90
10051;DHT22;5065;46.942;7.432;2023-07-30T00:12:16;20.70;99.90
10051;DHT22;5065;46.942;7.432;2023-07-30T00:14:45;20.70;99.90
10051;DHT22;5065;46.942;7.432;2023-07-30T00:17:12;20.70;99.90
10051;DHT22;5065;46.942;7.432;2023-07-30T00:19:39;20.70;99.90
10051;DHT22;5065;46.942;7.432;2023-07-30T00:22:07;20.70;99.90
10051;DHT22;5065;46.942;7.432;2023-07-30T00:24:34;20.70;99.90
10051;DHT22;5065;46.942;7.432;2023-07-30T00:27:03;20.70;99.90
10051;DHT22;5065;46.942;7.432;2023-07-30T00:29:30;20.70;99.90
10051;DHT22;5065;46.942;7.432;2023-07-30T00:31:57;20.70;99.90
10051;DHT22;5065;46.942;7.432;2023-07-30T00:34:24;20.70;99.90
10051;DHT22;5065;46.942;7.432;2023-07-30T00:36:51;20.70;99.90
10051;DHT22;5065;46.942;7.432;2023-07-30T00:39:19;20.70;99.90
10051;DHT22;5065;46.942;7.432;2023-07-30T00:41:46;20.70;99.90
10051;DHT22;5065;46.942;7.432;2023-07-30T00:44:14;20.70;99.90
10051;DHT22;5065;46.942;7.432;2023-07-30T00:46:41;20.70;99.90
10051;DHT22;5065;46.942;7.432;2023-07-30T00:49:08;20.70;99.90
10051;DHT22;5065;46.942;7.432;2023-07-30T00:51:36;20.70;99.90
10051;DHT22;5065;46.942;7.432;2023-07-30T00:54:03;20.70;99.90
10051;DHT22;5065;46.942;7.432;2023-07-30T00:56:30;20.60;99.90
10051;DHT22;5065;46.942;7.432;2023-07-30T00:58:57;20.70;99.90
10051;DHT22;5065;46.942;7.432;2023-07-30T01:01:26;20.70;99.90
10051;DHT22;5065;46.942;7.432;2023-07-30T01:03:54;20.70;99.90
10051;DHT22;5065;46.942;7.432;2023-07-30T01:06:21;20.70;99.90
10051;DHT22;5065;46.942;7.432;2023-07-30T01:08:49;20.70;99.90
10051;DHT22;5065;46.942;7.432;2023-07-30T01:11:16;20.60;99.90
10051;DHT22;5065;46.942;7.432;2023-07-30T01:13:44;20.70;99.90
10051;DHT22;5065;46.942;7.432;2023-07-30T01:16:12;20.70;99.90
10051;DHT22;5065;46.942;7.432;2023-07-30T01:18:40;20.70;99.90
10051;DHT22;5065;46.942;7.432;2023-07-30T01:21:09;20.70;99.90
10051;DHT22;5065;46.942;7.432;2023-07-30T01:23:36;20.70;99.90
10051;DHT22;5065;46.942;7.432;2023-07-30T01:26:08;20.70;99.90
10051;DHT22;5065;46.942;7.432;2023-07-30T01:28:46;20.70;99.90
10051;DHT22;5065;46.942;7.432;2023-07-30T01:31:16;20.70;99.90
10051;DHT22;5065;46.942;7.432;2023-07-30T01:33:47;20.70;99.90
10051;DHT22;5065;46.942;7.432;2023-07-30T01:36:17;20.70;99.90
10051;DHT22;5065;46.942;7.432;2023-07-30T01:38:47;20.60;99.90
10051;DHT22;5065;46.942;7.432;2023-07-30T01:41:14;20.50;99.90
10051;DHT22;5065;46.942;7.432;2023-07-30T01:43:42;20.50;99.90
10051;DHT22;5065;46.942;7.432;2023-07-30T01:46:09;20.50;99.90
10051;DHT22;5065;46.942;7.432;2023-07-30T01:48:36;20.50;99.90
10051;DHT22;5065;46.942;7.432;2023-07-30T01:51:03;20.50;99.90
10051;DHT22;5065;46.942;7.432;2023-07-30T01:53:32;20.50;99.90
10051;DHT22;5065;46.942;7.432;2023-07-30T01:55:59;20.40;99.90
10051;DHT22;5065;46.942;7.432;2023-07-30T01:58:26;20.40;99.90
10051;DHT22;5065;46.942;7.432;2023-07-30T02:00:53;20.50;99.90
10051;DHT22;5065;46.942;7.432;2023-07-30T02:03:20;20.40;99.90
10051;DHT22;5065;46.942;7.432;2023-07-30T02:05:47;20.30;99.90
10051;DHT22;5065;46.942;7.432;2023-07-30T02:08:14;20.40;99.90
10051;DHT22;5065;46.942;7.432;2023-07-30T02:10:43;20.30;99.90
10051;DHT22;5065;46.942;7.432;2023-07-30T02:13:10;20.30;99.90
10051;DHT22;5065;46.942;7.432;2023-07-30T02:15:40;20.30;99.90
10051;DHT22;5065;46.942;7.432;2023-07-30T02:18:08;20.20;99.90
10051;DHT22;5065;46.942;7.432;2023-07-30T02:20:36;20.20;99.90
10051;DHT22;5065;46.942;7.432;2023-07-30T02:23:03;20.20;99.90
10051;DHT22;5065;46.942;7.432;2023-07-30T02:25:30;20.20;99.90
10051;DHT22;5065;46.942;7.432;2023-07-30T02:27:59;20.20;99.90
10051;DHT22;5065;46.942;7.432;2023-07-30T02:30:27;20.20;99.90
10051;DHT22;5065;46.942;7.432;2023-07-30T02:32:54;20.20;99.90
10051;DHT22;5065;46.942;7.432;2023-07-30T02:35:27;20.20;99.90
10051;DHT22;5065;46.942;7.432;2023-07-30T02:37:56;20.20;99.90
10051;DHT22;5065;46.942;7.432;2023-07-30T02:40:24;20.20;99.90
10051;DHT22;5065;46.942;7.432;2023-07-30T02:42:51;20.20;99.90
10051;DHT22;5065;46.942;7.432;2023-07-30T02:45:20;20.10;99.90
10051;DHT22;5065;46.942;7.432;2023-07-30T02:47:47;20.20;99.90
10051;DHT22;5065;46.942;7.432;2023-07-30T02:50:14;20.10;99.90
10051;DHT22;5065;46.942;7.432;2023-07-30T02:52:41;20.10;99.90
10051;DHT22;5065;46.942;7.432;2023-07-30T02:55:10;20.10;99.90
10051;DHT22;5065;46.942;7.432;2023-07-30T02:57:37;20.10;99.90
10051;DHT22;5065;46.942;7.432;2023-07-30T03:00:05;20.10;99.90
10051;DHT22;5065;46.942;7.432;2023-07-30T03:02:36;20.10;99.90
10051;DHT22;5065;46.942;7.432;2023-07-30T03:05:05;20.10;99.90
10051;DHT22;5065;46.942;7.432;2023-07-30T03:07:32;20.10;99.90
10051;DHT22;5065;46.942;7.432;2023-07-30T03:09:59;20.10;99.90
10051;DHT22;5065;46.942;7.432;2023-07-30T03:12:26;20.10;99.90
10051;DHT22;5065;46.942;7.432;2023-07-30T03:14:55;20.10;99.90
10051;DHT22;5065;46.942;7.432;2023-07-30T03:17:23;20.10;99.90
10051;DHT22;5065;46.942;7.432;2023-07-30T03:19:52;20.10;99.90
10051;DHT22;5065;46.942;7.432;2023-07-30T03:22:19;20.10;99.90
10051;DHT22;5065;46.942;7.432;2023-07-30T03:24:46;20.20;99.90
10051;DHT22;5065;46.942;7.432;2023-07-30T03:27:14;20.10;99.90
10051;DHT22;5065;46.942;7.432;2023-07-30T03:29:41;20.10;99.90
10051;DHT22;5065;46.942;7.432;2023-07-30T03:32:08;20.00;99.90
10051;DHT22;5065;46.942;7.432;2023-07-30T03:34:35;20.00;99.90
10051;DHT22;5065;46.942;7.432;2023-07-30T03:37:04;20.00;99.90
10051;DHT22;5065;46.942;7.432;2023-07-30T03:39:31;20.00;99.90
10051;DHT22;5065;46.942;7.432;2023-07-30T03:41:58;20.00;99.90
10051;DHT22;5065;46.942;7.432;2023-07-30T03:44:25;20.00;99.90
10051;DHT22;5065;46.942;7.432;2023-07-30T03:46:53;20.00;99.90
10051;DHT22;5065;46.942;7.432;2023-07-30T03:49:20;20.00;99.90
10051;DHT22;5065;46.942;7.432;2023-07-30T03:51:47;20.00;99.90
10051;DHT22;5065;46.942;7.432;2023-07-30T03:54:16;20.00;99.90
10051;DHT22;5065;46.942;7.432;2023-07-30T03:56:43;20.00;99.90
10051;DHT22;5065;46.942;7.432;2023-07-30T03:59:10;20.00;99.90
10051;DHT22;5065;46.942;7.432;2023-07-30T04:01:37;20.00;99.90
10051;DHT22;5065;46.942;7.432;2023-07-30T04:04:04;20.00;99.90
10051;DHT22;5065;46.942;7.432;2023-07-30T04:06:31;20.00;99.90
10051;DHT22;5065;46.942;7.432;2023-07-30T04:08:59;20.00;99.90
10051;DHT22;5065;46.942;7.432;2023-07-30T04:11:27;20.00;99.90
10051;DHT22;5065;46.942;7.432;2023-07-30T04:13:54;20.00;99.90
10051;DHT22;5065;46.942;7.432;2023-07-30T04:16:22;20.00;99.90
10051;DHT22;5065;46.942;7.432;2023-07-30T04:18:49;19.90;99.90
10051;DHT22;5065;46.942;7.432;2023-07-30T04:21:16;19.90;99.90
10051;DHT22;5065;46.942;7.432;2023-07-30T04:23:43;19.80;99.90
10051;DHT22;5065;46.942;7.432;2023-07-30T04:26:10;19.80;99.90
10051;DHT22;5065;46.942;7.432;2023-07-30T04:28:41;19.90;99.90
10051;DHT22;5065;46.942;7.432;2023-07-30T04:31:09;19.80;99.90
10051;DHT22;5065;46.942;7.432;2023-07-30T04:33:36;19.80;99.90
10051;DHT22;5065;46.942;7.432;2023-07-30T04:36:03;19.80;99.90
10051;DHT22;5065;46.942;7.432;2023-07-30T04:38:31;19.80;99.90
10051;DHT22;5065;46.942;7.432;2023-07-30T04:40:58;19.80;99.90
10051;DHT22;5065;46.942;7.432;2023-07-30T04:43:25;19.80;99.90
10051;DHT22;5065;46.942;7.432;2023-07-30T04:45:53;19.80;99.90
10051;DHT22;5065;46.942;7.432;2023-07-30T04:48:21;19.80;99.90
10051;DHT22;5065;46.942;7.432;2023-07-30T04:50:48;19.90;99.90
10051;DHT22;5065;46.942;7.432;2023-07-30T04:53:15;19.90;99.90
10051;DHT22;5065;46.942;7.432;2023-07-30T04:55:43;20.00;99.90
10051;DHT22;5065;46.942;7.432;2023-07-30T04:58:11;19.90;99.90
10051;DHT22;5065;46.942;7.432;2023-07-30T05:00:38;20.00;99.90
10051;DHT22;5065;46.942;7.432;2023-07-30T05:03:07;20.00;99.90
10051;DHT22;5065;46.942;7.432;2023-07-30T05:05:35;20.00;99.90
10051;DHT22;5065;46.942;7.432;2023-07-30T05:08:02;19.90;99.90
10051;DHT22;5065;46.942;7.432;2023-07-30T05:10:30;20.00;99.90
10051;DHT22;5065;46.942;7.432;2023-07-30T05:12:57;20.00;99.90
10051;DHT22;5065;46.942;7.432;2023-07-30T05:15:24;20.00;99.90
10051;DHT22;5065;46.942;7.432;2023-07-30T05:17:51;20.00;99.90
10051;DHT22;5065;46.942;7.432;2023-07-30T05:20:20;20.00;99.90
10051;DHT22;5065;46.942;7.432;2023-07-30T05:22:47;20.10;99.90
10051;DHT22;5065;46.942;7.432;2023-07-30T05:25:14;20.10;99.90
10051;DHT22;5065;46.942;7.432;2023-07-30T05:27:41;20.20;99.90
10051;DHT22;5065;46.942;7.432;2023-07-30T05:30:09;20.30;99.90
10051;DHT22;5065;46.942;7.432;2023-07-30T05:32:36;20.40;99.90
10051;DHT22;5065;46.942;7.432;2023-07-30T05:35:04;20.50;99.90
10051;DHT22;5065;46.942;7.432;2023-07-30T05:37:33;20.60;99.90
10051;DHT22;5065;46.942;7.432;2023-07-30T05:40:00;20.60;99.90
10051;DHT22;5065;46.942;7.432;2023-07-30T05:42:28;20.70;99.90
10051;DHT22;5065;46.942;7.432;2023-07-30T05:44:56;20.60;99.90
10051;DHT22;5065;46.942;7.432;2023-07-30T05:47:23;20.60;99.90
10051;DHT22;5065;46.942;7.432;2023-07-30T05:49:50;20.60;99.90
10051;DHT22;5065;46.942;7.432;2023-07-30T05:52:17;20.60;99.90
10051;DHT22;5065;46.942;7.432;2023-07-30T05:54:45;20.60;99.90
10051;DHT22;5065;46.942;7.432;2023-07-30T05:57:13;20.60;99.90
10051;DHT22;5065;46.942;7.432;2023-07-30T05:59:40;20.70;99.90
10051;DHT22;5065;46.942;7.432;2023-07-30T06:02:07;20.90;99.90
10051;DHT22;5065;46.942;7.432;2023-07-30T06:04:35;21.20;99.90
10051;DHT22;5065;46.942;7.432;2023-07-30T06:07:03;21.40;99.90
10051;DHT22;5065;46.942;7.432;2023-07-30T06:09:32;21.60;99.90
10051;DHT22;5065;46.942;7.432;2023-07-30T06:12:01;21.70;99.90
10051;DHT22;5065;46.942;7.432;2023-07-30T06:14:29;21.70;99.90
10051;DHT22;5065;46.942;7.432;2023-07-30T06:16:56;21.90;99.90
10051;DHT22;5065;46.942;7.432;2023-07-30T06:19:24;22.10;99.90
10051;DHT22;5065;46.942;7.432;2023-07-30T06:21:52;22.30;99.90
10051;DHT22;5065;46.942;7.432;2023-07-30T06:24:19;22.50;99.90
10051;DHT22;5065;46.942;7.432;2023-07-30T06:26:46;22.60;99.90
10051;DHT22;5065;46.942;7.432;2023-07-30T06:29:15;22.70;99.90
10051;DHT22;5065;46.942;7.432;2023-07-30T06:31:42;22.70;99.90
10051;DHT22;5065;46.942;7.432;2023-07-30T06:34:09;22.70;99.90
10051;DHT22;5065;46.942;7.432;2023-07-30T06:36:36;22.60;99.90
10051;DHT22;5065;46.942;7.432;2023-07-30T06:39:03;22.60;99.90
10051;DHT22;5065;46.942;7.432;2023-07-30T06:41:31;22.60;99.90
10051;DHT22;5065;46.942;7.432;2023-07-30T06:43:58;22.60;99.90
10051;DHT22;5065;46.942;7.432;2023-07-30T06:46:26;22.60;99.90
10051;DHT22;5065;46.942;7.432;2023-07-30T06:48:53;22.60;99.90
10051;DHT22;5065;46.942;7.432;2023-07-30T06:51:24;22.60;99.90
10051;DHT22;5065;46.942;7.432;2023-07-30T06:53:51;22.70;99.90
10051;DHT22;5065;46.942;7.432;2023-07-30T06:56:18;23.00;99.90
10051;DHT22;5065;46.942;7.432;2023-07-30T06:58:45;23.40;99.90
10051;DHT22;5065;46.942;7.432;2023-07-30T07:01:12;23.70;99.90
10051;DHT22;5065;46.942;7.432;2023-07-30T07:03:41;23.90;99.90
10051;DHT22;5065;46.942;7.432;2023-07-30T07:06:08;23.90;99.90
10051;DHT22;5065;46.942;7.432;2023-07-30T07:08:36;23.90;99.90
10051;DHT22;5065;46.942;7.432;2023-07-30T07:11:04;23.80;99.90
10051;DHT22;5065;46.942;7.432;2023-07-30T07:13:34;23.70;99.90
10051;DHT22;5065;46.942;7.432;2023-07-30T07:16:03;23.60;99.90
10051;DHT22;5065;46.942;7.432;2023-07-30T07:18:31;23.60;99.90
10051;DHT22;5065;46.942;7.432;2023-07-30T07:20:59;23.50;99.90
10051;DHT22;5065;46.942;7.432;2023-07-30T07:23:26;23.50;99.90
10051;DHT22;5065;46.942;7.432;2023-07-30T07:25:53;23.50;99.90
10051;DHT22;5065;46.942;7.432;2023-07-30T07:28:21;23.50;99.90
10051;DHT22;5065;46.942;7.432;2023-07-30T07:30:48;23.40;99.90
10051;DHT22;5065;46.942;7.432;2023-07-30T07:33:15;23.50;99.90
10051;DHT22;5065;46.942;7.432;2023-07-30T07:35:42;23.40;99.90
10051;DHT22;5065;46.942;7.432;2023-07-30T07:38:11;23.40;99.90
10051;DHT22;5065;46.942;7.432;2023-07-30T07:40:39;23.30;99.90
10051;DHT22;5065;46.942;7.432;2023-07-30T07:43:06;23.20;99.90
10051;DHT22;5065;46.942;7.432;2023-07-30T07:45:34;23.10;99.90
10051;DHT22;5065;46.942;7.432;2023-07-30T07:48:01;23.00;99.90
10051;DHT22;5065;46.942;7.432;2023-07-30T07:50:28;22.90;99.90
10051;DHT22;5065;46.942;7.432;2023-07-30T07:52:55;22.80;99.90
10051;DHT22;5065;46.942;7.432;2023-07-30T07:55:24;22.80;99.90
10051;DHT22;5065;46.942;7.432;2023-07-30T07:57:51;22.70;99.90
10051;DHT22;5065;46.942;7.432;2023-07-30T08:00:18;22.70;99.90
10051;DHT22;5065;46.942;7.432;2023-07-30T08:02:45;22.60;99.90
10051;DHT22;5065;46.942;7.432;2023-07-30T08:05:13;22.60;99.90
10051;DHT22;5065;46.942;7.432;2023-07-30T08:07:40;22.70;99.90
10051;DHT22;5065;46.942;7.432;2023-07-30T08:10:08;22.80;99.90
10051;DHT22;5065;46.942;7.432;2023-07-30T08:12:38;22.90;99.90
10051;DHT22;5065;46.942;7.432;2023-07-30T08:15:06;23.00;99.90
10051;DHT22;5065;46.942;7.432;2023-07-30T08:17:33;23.30;99.90
10051;DHT22;5065;46.942;7.432;2023-07-30T08:20:00;23.70;99.90
10051;DHT22;5065;46.942;7.432;2023-07-30T08:22:28;24.00;99.90
10051;DHT22;5065;46.942;7.432;2023-07-30T08:24:55;24.30;99.90
10051;DHT22;5065;46.942;7.432;2023-07-30T08:27:22;24.40;99.90
10051;DHT22;5065;46.942;7.432;2023-07-30T08:29:50;24.70;99.90
10051;DHT22;5065;46.942;7.432;2023-07-30T08:32:18;24.90;99.90
10051;DHT22;5065;46.942;7.432;2023-07-30T08:34:45;25.00;99.90
10051;DHT22;5065;46.942;7.432;2023-07-30T08:37:12;25.00;99.90
10051;DHT22;5065;46.942;7.432;2023-07-30T08:39:39;25.00;99.90
10051;DHT22;5065;46.942;7.432;2023-07-30T08:42:06;24.90;99.90
10051;DHT22;5065;46.942;7.432;2023-07-30T08:44:34;24.80;99.90
10051;DHT22;5065;46.942;7.432;2023-07-30T08:47:04;24.80;99.90
10051;DHT22;5065;46.942;7.432;2023-07-30T08:49:31;24.80;99.90
10051;DHT22;5065;46.942;7.432;2023-07-30T08:52:03;24.90;99.90
10051;DHT22;5065;46.942;7.432;2023-07-30T08:54:31;25.00;99.90
10051;DHT22;5065;46.942;7.432;2023-07-30T08:56:58;25.10;99.90
10051;DHT22;5065;46.942;7.432;2023-07-30T08:59:27;25.30;99.90
10051;DHT22;5065;46.942;7.432;2023-07-30T09:01:58;25.40;99.90
10051;DHT22;5065;46.942;7.432;2023-07-30T09:04:30;25.30;99.90
10051;DHT22;5065;46.942;7.432;2023-07-30T09:07:00;25.20;99.90
10051;DHT22;5065;46.942;7.432;2023-07-30T09:09:27;25.10;99.90
10051;DHT22;5065;46.942;7.432;2023-07-30T09:11:57;25.00;99.90
10051;DHT22;5065;46.942;7.432;2023-07-30T09:14:26;24.90;99.90
10051;DHT22;5065;46.942;7.432;2023-07-30T09:16:56;24.90;99.90
10051;DHT22;5065;46.942;7.432;2023-07-30T09:19:24;25.10;99.90
10051;DHT22;5065;46.942;7.432;2023-07-30T09:21:54;25.20;99.90
10051;DHT22;5065;46.942;7.432;2023-07-30T09:24:22;25.40;99.90
10051;DHT22;5065;46.942;7.432;2023-07-30T09:26:49;25.50;99.90
10051;DHT22;5065;46.942;7.432;2023-07-30T09:29:16;25.70;99.90
10051;DHT22;5065;46.942;7.432;2023-07-30T09:31:46;25.80;99.90
10051;DHT22;5065;46.942;7.432;2023-07-30T09:34:17;25.80;99.90
10051;DHT22;5065;46.942;7.432;2023-07-30T09:36:45;25.90;99.90
10051;DHT22;5065;46.942;7.432;2023-07-30T09:39:19;26.10;99.90
10051;DHT22;5065;46.942;7.432;2023-07-30T09:41:47;26.30;99.90
10051;DHT22;5065;46.942;7.432;2023-07-30T09:44:15;26.60;99.90
10051;DHT22;5065;46.942;7.432;2023-07-30T09:46:43;26.80;99.90
10051;DHT22;5065;46.942;7.432;2023-07-30T09:49:10;27.10;99.90
10051;DHT22;5065;46.942;7.432;2023-07-30T09:51:37;27.20;99.90
10051;DHT22;5065;46.942;7.432;2023-07-30T09:54:05;27.20;99.90
10051;DHT22;5065;46.942;7.432;2023-07-30T09:56:34;27.30;99.90
10051;DHT22;5065;46.942;7.432;2023-07-30T09:59:01;27.50;99.90
10051;DHT22;5065;46.942;7.432;2023-07-30T10:01:28;27.60;99.90
10051;DHT22;5065;46.942;7.432;2023-07-30T10:03:56;27.70;99.90
10051;DHT22;5065;46.942;7.432;2023-07-30T10:06:24;27.90;99.90
10051;DHT22;5065;46.942;7.432;2023-07-30T10:08:53;27.90;99.90
10051;DHT22;5065;46.942;7.432;2023-07-30T10:11:22;28.00;99.90
10051;DHT22;5065;46.942;7.432;2023-07-30T10:13:51;28.10;99.90
10051;DHT22;5065;46.942;7.432;2023-07-30T10:16:19;28.20;99.90
10051;DHT22;5065;46.942;7.432;2023-07-30T10:18:55;28.30;99.90
10051;DHT22;5065;46.942;7.432;2023-07-30T10:21:24;28.40;99.90
10051;DHT22;5065;46.942;7.432;2023-07-30T10:23:59;28.40;99.90
10051;DHT22;5065;46.942;7.432;2023-07-30T10:26:30;28.40;99.90
10051;DHT22;5065;46.942;7.432;2023-07-30T10:29:15;28.40;99.90
10051;DHT22;5065;46.942;7.432;2023-07-30T10:31:47;28.50;99.90
10051;DHT22;5065;46.942;7.432;2023-07-30T10:34:15;28.60;99.90
10051;DHT22;5065;46.942;7.432;2023-07-30T10:36:43;28.80;99.90
10051;DHT22;5065;46.942;7.432;2023-07-30T10:39:12;28.80;99.90
10051;DHT22;5065;46.942;7.432;2023-07-30T10:41:40;28.70;99.90
10051;DHT22;5065;46.942;7.432;2023-07-30T10:44:07;28.60;99.90
10051;DHT22;5065;46.942;7.432;2023-07-30T10:46:47;28.60;99.90
10051;DHT22;5065;46.942;7.432;2023-07-30T10:49:14;28.60;99.90
10051;DHT22;5065;46.942;7.432;2023-07-30T10:51:41;28.50;99.90
10051;DHT22;5065;46.942;7.432;2023-07-30T10:54:08;28.30;99.90
10051;DHT22;5065;46.942;7.432;2023-07-30T10:56:36;28.30;99.90
10051;DHT22;5065;46.942;7.432;2023-07-30T10:59:04;28.20;99.90
10051;DHT22;5065;46.942;7.432;2023-07-30T11:01:36;28.20;99.90
10051;DHT22;5065;46.942;7.432;2023-07-30T11:04:11;28.20;99.90
10051;DHT22;5065;46.942;7.432;2023-07-30T11:06:39;28.10;99.90
10051;DHT22;5065;46.942;7.432;2023-07-30T11:09:18;28.10;99.90
10051;DHT22;5065;46.942;7.432;2023-07-30T11:11:47;28.10;99.90
10051;DHT22;5065;46.942;7.432;2023-07-30T11:14:17;28.00;99.90
10051;DHT22;5065;46.942;7.432;2023-07-30T11:16:49;28.00;99.90
10051;DHT22;5065;46.942;7.432;2023-07-30T11:19:19;27.90;99.90
10051;DHT22;5065;46.942;7.432;2023-07-30T11:21:46;27.90;99.90
10051;DHT22;5065;46.942;7.432;2023-07-30T11:24:14;27.80;99.90
10051;DHT22;5065;46.942;7.432;2023-07-30T11:26:41;27.80;99.90
10051;DHT22;5065;46.942;7.432;2023-07-30T11:29:15;27.70;99.90
10051;DHT22;5065;46.942;7.432;2023-07-30T11:31:44;27.70;99.90
10051;DHT22;5065;46.942;7.432;2023-07-30T11:34:12;27.70;99.90
10051;DHT22;5065;46.942;7.432;2023-07-30T11:36:45;27.70;99.90
10051;DHT22;5065;46.942;7.432;2023-07-30T11:39:12;27.60;99.90
10051;DHT22;5065;46.942;7.432;2023-07-30T11:41:40;27.60;99.90
10051;DHT22;5065;46.942;7.432;2023-07-30T11:44:07;27.50;99.90
10051;DHT22;5065;46.942;7.432;2023-07-30T11:46:34;27.40;99.90
10051;DHT22;5065;46.942;7.432;2023-07-30T11:49:12;27.40;99.90
10051;DHT22;5065;46.942;7.432;2023-07-30T11:51:39;27.30;99.90
10051;DHT22;5065;46.942;7.432;2023-07-30T11:54:19;27.30;99.90
10051;DHT22;5065;46.942;7.432;2023-07-30T11:56:46;27.30;99.90
10051;DHT22;5065;46.942;7.432;2023-07-30T11:59:14;27.40;99.90
10051;DHT22;5065;46.942;7.432;2023-07-30T12:01:42;27.30;99.90
10051;DHT22;5065;46.942;7.432;2023-07-30T12:04:09;27.30;99.90
10051;DHT22;5065;46.942;7.432;2023-07-30T12:06:40;27.00;99.90
10051;DHT22;5065;46.942;7.432;2023-07-30T12:09:14;27.10;99.90
10051;DHT22;5065;46.942;7.432;2023-07-30T12:11:46;27.10;99.90
10051;DHT22;5065;46.942;7.432;2023-07-30T12:14:13;27.00;99.90
10051;DHT22;5065;46.942;7.432;2023-07-30T12:16:40;27.00;99.90
10051;DHT22;5065;46.942;7.432;2023-07-30T12:19:08;27.00;99.90
10051;DHT22;5065;46.942;7.432;2023-07-30T12:21:35;27.00;99.90
10051;DHT22;5065;46.942;7.432;2023-07-30T12:24:02;26.90;99.90
10051;DHT22;5065;46.942;7.432;2023-07-30T12:26:31;26.90;99.90
10051;DHT22;5065;46.942;7.432;2023-07-30T12:28:58;26.80;99.90
10051;DHT22;5065;46.942;7.432;2023-07-30T12:31:26;26.80;99.90
10051;DHT22;5065;46.942;7.432;2023-07-30T12:33:53;26.80;99.90
10051;DHT22;5065;46.942;7.432;2023-07-30T12:36:23;26.80;99.90
10051;DHT22;5065;46.942;7.432;2023-07-30T12:38:50;26.80;99.90
10051;DHT22;5065;46.942;7.432;2023-07-30T12:41:19;26.80;99.90
10051;DHT22;5065;46.942;7.432;2023-07-30T12:43:53;26.80;99.90
10051;DHT22;5065;46.942;7.432;2023-07-30T12:46:22;26.80;99.90
10051;DHT22;5065;46.942;7.432;2023-07-30T12:48:51;26.70;99.90
10051;DHT22;5065;46.942;7.432;2023-07-30T12:51:18;26.70;99.80
10051;DHT22;5065;46.942;7.432;2023-07-30T12:53:45;26.70;99.90
10051;DHT22;5065;46.942;7.432;2023-07-30T12:56:13;26.70;99.80
10051;DHT22;5065;46.942;7.432;2023-07-30T12:58:41;26.60;99.40
10051;DHT22;5065;46.942;7.432;2023-07-30T13:01:09;26.60;99.70
10051;DHT22;5065;46.942;7.432;2023-07-30T13:03:38;26.60;99.30
10051;DHT22;5065;46.942;7.432;2023-07-30T13:06:10;26.60;99.30
10051;DHT22;5065;46.942;7.432;2023-07-30T13:08:38;26.60;99.10
10051;DHT22;5065;46.942;7.432;2023-07-30T13:11:06;26.60;99.40
10051;DHT22;5065;46.942;7.432;2023-07-30T13:13:33;26.50;99.30
10051;DHT22;5065;46.942;7.432;2023-07-30T13:16:00;26.50;99.00
10051;DHT22;5065;46.942;7.432;2023-07-30T13:18:28;26.50;98.70
10051;DHT22;5065;46.942;7.432;2023-07-30T13:20:56;26.50;98.40
10051;DHT22;5065;46.942;7.432;2023-07-30T13:23:22;26.50;98.50
10051;DHT22;5065;46.942;7.432;2023-07-30T13:25:51;26.50;97.50
10051;DHT22;5065;46.942;7.432;2023-07-30T13:28:18;26.50;98.40
10051;DHT22;5065;46.942;7.432;2023-07-30T13:30:45;26.50;97.90
10051;DHT22;5065;46.942;7.432;2023-07-30T13:33:12;26.50;97.80
10051;DHT22;5065;46.942;7.432;2023-07-30T13:35:41;26.40;97.80
10051;DHT22;5065;46.942;7.432;2023-07-30T13:38:07;26.40;97.30
10051;DHT22;5065;46.942;7.432;2023-07-30T13:40:34;26.30;96.70
10051;DHT22;5065;46.942;7.432;2023-07-30T13:43:01;26.30;97.50
10051;DHT22;5065;46.942;7.432;2023-07-30T13:45:28;26.30;97.40
10051;DHT22;5065;46.942;7.432;2023-07-30T13:47:55;26.30;96.90
10051;DHT22;5065;46.942;7.432;2023-07-30T13:50:22;26.20;97.00
10051;DHT22;5065;46.942;7.432;2023-07-30T13:52:51;26.20;96.90
10051;DHT22;5065;46.942;7.432;2023-07-30T13:55:17;26.20;97.10
10051;DHT22;5065;46.942;7.432;2023-07-30T13:57:45;26.10;97.20
10051;DHT22;5065;46.942;7.432;2023-07-30T14:00:12;26.20;97.00
10051;DHT22;5065;46.942;7.432;2023-07-30T14:02:39;26.10;96.60
10051;DHT22;5065;46.942;7.432;2023-07-30T14:05:06;26.10;96.00
10051;DHT22;5065;46.942;7.432;2023-07-30T14:07:33;26.00;96.00
10051;DHT22;5065;46.942;7.432;2023-07-30T14:10:02;26.00;96.40
10051;DHT22;5065;46.942;7.432;2023-07-30T14:12:29;26.00;96.00
10051;DHT22;5065;46.942;7.432;2023-07-30T14:14:55;26.00;96.30
10051;DHT22;5065;46.942;7.432;2023-07-30T14:17:22;26.00;95.50
10051;DHT22;5065;46.942;7.432;2023-07-30T14:19:49;26.00;95.40
10051;DHT22;5065;46.942;7.432;2023-07-30T14:22:16;26.00;96.00
10051;DHT22;5065;46.942;7.432;2023-07-30T14:24:43;26.00;95.00
10051;DHT22;5065;46.942;7.432;2023-07-30T14:27:11;25.90;95.60
10051;DHT22;5065;46.942;7.432;2023-07-30T14:29:38;25.90;95.00
10051;DHT22;5065;46.942;7.432;2023-07-30T14:32:06;25.90;95.60
10051;DHT22;5065;46.942;7.432;2023-07-30T14:34:33;25.90;94.80
10051;DHT22;5065;46.942;7.432;2023-07-30T14:37:00;25.80;95.60
10051;DHT22;5065;46.942;7.432;2023-07-30T14:39:27;25.90;95.80
10051;DHT22;5065;46.942;7.432;2023-07-30T14:41:53;25.80;95.50
10051;DHT22;5065;46.942;7.432;2023-07-30T14:44:22;25.80;95.20
10051;DHT22;5065;46.942;7.432;2023-07-30T14:46:49;25.80;95.40
10051;DHT22;5065;46.942;7.432;2023-07-30T14:49:15;25.80;94.30
10051;DHT22;5065;46.942;7.432;2023-07-30T14:51:42;25.70;94.50
10051;DHT22;5065;46.942;7.432;2023-07-30T14:54:09;25.70;94.10
10051;DHT22;5065;46.942;7.432;2023-07-30T14:56:36;25.70;95.20
10051;DHT22;5065;46.942;7.432;2023-07-30T14:59:03;25.70;95.20
10051;DHT22;5065;46.942;7.432;2023-07-30T15:01:32;25.70;95.30
10051;DHT22;5065;46.942;7.432;2023-07-30T15:03:59;25.60;95.00
10051;DHT22;5065;46.942;7.432;2023-07-30T15:06:26;25.60;94.60
10051;DHT22;5065;46.942;7.432;2023-07-30T15:08:54;25.60;94.60
10051;DHT22;5065;46.942;7.432;2023-07-30T15:11:21;25.50;94.40
10051;DHT22;5065;46.942;7.432;2023-07-30T15:13:48;25.60;93.20
10051;DHT22;5065;46.942;7.432;2023-07-30T15:16:15;25.60;93.50
10051;DHT22;5065;46.942;7.432;2023-07-30T15:18:43;25.50;93.40
10051;DHT22;5065;46.942;7.432;2023-07-30T15:21:11;25.50;93.80
10051;DHT22;5065;46.942;7.432;2023-07-30T15:23:38;25.50;93.80
10051;DHT22;5065;46.942;7.432;2023-07-30T15:26:05;25.50;94.00
10051;DHT22;5065;46.942;7.432;2023-07-30T15:28:33;25.50;94.00
10051;DHT22;5065;46.942;7.432;2023-07-30T15:30:59;25.50;93.00
10051;DHT22;5065;46.942;7.432;2023-07-30T15:33:26;25.50;93.50
10051;DHT22;5065;46.942;7.432;2023-07-30T15:35:54;25.50;94.10
10051;DHT22;5065;46.942;7.432;2023-07-30T15:38:21;25.50;92.50
10051;DHT22;5065;46.942;7.432;2023-07-30T15:40:48;25.50;93.90
10051;DHT22;5065;46.942;7.432;2023-07-30T15:43:15;25.50;93.60
10051;DHT22;5065;46.942;7.432;2023-07-30T15:45:42;25.50;93.20
10051;DHT22;5065;46.942;7.432;2023-07-30T15:48:09;25.40;92.90
10051;DHT22;5065;46.942;7.432;2023-07-30T15:50:36;25.40;90.90